Time,TemperatureF,DewpointF,PressureIn,WindDirection,WindDirectionDegrees,WindSpeedMPH,WindSpeedGustMPH,Humidity,HourlyPrecipIn,Conditions,Clouds,dailyrainin,SoftwareType,DateUTC
2014-08-20 00:04:00,67.8,66.0,29.91,NNE,20,2.0,2.0,95,0.00,,,0.00,weatherlink.com 1.10,2014-08-20 04:04:00,
2014-08-20 00:19:00,67.5,66.0,29.91,NNE,27,1.0,2.0,95,0.00,,,0.00,weatherlink.com 1.10,2014-08-20 04:19:00,
2014-08-20 00:34:00,67.0,66.0,29.91,NE,37,0.0,2.0,96,0.00,,,0.00,weatherlink.com 1.10,2014-08-20 04:34:00,
2014-08-20 00:49:00,67.1,66.0,29.91,NNE,19,1.0,2.0,95,0.00,,,0.00,weatherlink.com 1.10,2014-08-20 04:49:00,
2014-08-20 01:04:00,66.6,66.0,29.92,NNE,20,0.0,1.0,96,0.00,,,0.00,weatherlink.com 1.10,2014-08-20 05:04:00,
2014-08-20 01:19:00,66.6,66.0,29.93,NNE,30,2.0,2.0,96,0.00,,,0.00,weatherlink.com 1.10,2014-08-20 05:19:00,
2014-08-20 01:34:00,66.2,65.0,29.93,NNE,25,1.0,2.0,96,0.00,,,0.00,weatherlink.com 1.10,2014-08-20 05:34:00,
2014-08-20 01:49:00,66.1,65.0,29.93,North,1,4.0,4.0,96,0.00,,,0.00,weatherlink.com 1.10,2014-08-20 05:49:00,
2014-08-20 02:04:00,65.9,65.0,29.94,NNE,19,0.0,2.0,96,0.00,,,0.00,weatherlink.com 1.10,2014-08-20 06:04:00,
2014-08-20 02:19:00,66.1,65.0,29.94,NNW,342,2.0,2.0,97,0.00,,,0.00,weatherlink.com 1.10,2014-08-20 06:19:00,
2014-08-20 02:34:00,65.8,65.0,29.93,NNE,20,0.0,3.0,96,0.00,,,0.00,weatherlink.com 1.10,2014-08-20 06:34:00,
2014-08-20 02:49:00,65.7,65.0,29.93,NW,321,0.0,2.0,97,0.00,,,0.00,weatherlink.com 1.10,2014-08-20 06:49:00,
2014-08-20 03:04:00,65.4,65.0,29.93,NNE,24,3.0,3.0,97,0.00,,,0.00,weatherlink.com 1.10,2014-08-20 07:04:00,
2014-08-20 03:20:00,65.4,64.0,29.93,NNE,27,2.0,5.0,96,0.00,,,0.00,weatherlink.com 1.10,2014-08-20 07:20:00,
2014-08-20 03:34:00,64.9,64.0,29.93,NE,41,2.0,3.0,97,0.00,,,0.00,weatherlink.com 1.10,2014-08-20 07:34:00,
2014-08-20 03:49:00,64.5,64.0,29.92,NNE,26,0.0,2.0,97,0.00,,,0.00,weatherlink.com 1.10,2014-08-20 07:49:00,
2014-08-20 04:04:00,64.5,64.0,29.93,NNW,340,1.0,2.0,97,0.00,,,0.00,weatherlink.com 1.10,2014-08-20 08:04:00,
2014-08-20 04:19:00,64.2,63.0,29.92,East,94,2.0,2.0,97,0.00,,,0.00,weatherlink.com 1.10,2014-08-20 08:19:00,
2014-08-20 04:34:00,64.0,63.0,29.92,NNW,347,1.0,2.0,97,0.00,,,0.00,weatherlink.com 1.10,2014-08-20 08:34:00,
2014-08-20 04:49:00,64.0,64.0,29.93,NNW,338,0.0,2.0,98,0.00,,,0.00,weatherlink.com 1.10,2014-08-20 08:49:00,
2014-08-20 05:04:00,63.9,63.0,29.94,NNE,23,3.0,4.0,97,0.00,,,0.00,weatherlink.com 1.10,2014-08-20 09:04:00,
2014-08-20 05:19:00,63.7,63.0,29.95,NW,314,0.0,3.0,98,0.00,,,0.00,weatherlink.com 1.10,2014-08-20 09:19:00,
2014-08-20 06:04:00,63.2,63.0,29.95,West,270,0.0,1.0,98,0.00,,,0.00,weatherlink.com 1.10,2014-08-20 10:04:00,
2014-08-20 06:19:00,63.2,63.0,29.96,West,268,1.0,1.0,98,0.00,,,0.00,weatherlink.com 1.10,2014-08-20 10:19:00,
2014-08-20 06:34:00,63.2,63.0,29.97,SW,222,1.0,2.0,98,0.00,,,0.00,weatherlink.com 1.10,2014-08-20 10:34:00,
2014-08-20 06:49:00,63.0,63.0,29.98,SW,215,1.0,2.0,98,0.00,,,0.00,weatherlink.com 1.10,2014-08-20 10:49:00,
2014-08-20 07:04:00,62.9,62.0,29.98,SSW,208,1.0,3.0,98,0.00,,,0.00,weatherlink.com 1.10,2014-08-20 11:04:00,
2014-08-20 07:19:00,62.9,62.0,29.98,SW,219,0.0,2.0,98,0.00,,,0.00,weatherlink.com 1.10,2014-08-20 11:19:00,
2014-08-20 07:34:00,63.1,63.0,29.98,SW,225,0.0,1.0,98,0.00,,,0.00,weatherlink.com 1.10,2014-08-20 11:34:00,
2014-08-20 07:49:00,63.5,63.0,29.99,WSW,242,0.0,1.0,98,0.00,,,0.00,weatherlink.com 1.10,2014-08-20 11:49:00,
2014-08-20 08:04:00,63.6,63.0,29.99,West,259,0.0,0.0,98,0.00,,,0.00,weatherlink.com 1.10,2014-08-20 12:04:00,
2014-08-20 08:19:00,64.1,64.0,29.99,SW,218,0.0,1.0,99,0.00,,,0.00,weatherlink.com 1.10,2014-08-20 12:19:00,
2014-08-20 08:35:00,64.7,64.0,29.99,SW,225,0.0,1.0,98,0.00,,,0.00,weatherlink.com 1.10,2014-08-20 12:35:00,
2014-08-20 08:50:00,65.7,65.0,30.00,NNW,337,0.0,3.0,98,0.00,,,0.00,weatherlink.com 1.10,2014-08-20 12:50:00,
2014-08-20 09:05:00,66.3,66.0,30.00,North,349,3.0,4.0,97,0.00,,,0.00,weatherlink.com 1.10,2014-08-20 13:05:00,
2014-08-20 09:20:00,67.7,67.0,30.00,North,4,1.0,5.0,96,0.00,,,0.00,weatherlink.com 1.10,2014-08-20 13:20:00,
2014-08-20 09:35:00,68.9,67.0,30.00,North,10,3.0,6.0,93,0.00,,,0.00,weatherlink.com 1.10,2014-08-20 13:35:00,
2014-08-20 09:50:00,69.0,67.0,30.01,NW,326,4.0,5.0,93,0.00,,,0.00,weatherlink.com 1.10,2014-08-20 13:50:00,
2014-08-20 10:05:00,70.2,68.0,30.01,NNE,16,5.0,7.0,91,0.00,,,0.00,weatherlink.com 1.10,2014-08-20 14:05:00,
2014-08-20 10:20:00,72.9,69.0,30.00,NW,310,0.0,6.0,87,0.00,,,0.00,weatherlink.com 1.10,2014-08-20 14:20:00,
2014-08-20 10:35:00,75.6,70.0,30.00,North,1,2.0,3.0,82,0.00,,,0.00,weatherlink.com 1.10,2014-08-20 14:35:00,
2014-08-20 10:50:00,76.9,70.0,30.01,North,360,2.0,4.0,80,0.00,,,0.00,weatherlink.com 1.10,2014-08-20 14:50:00,
2014-08-20 11:06:00,78.4,71.0,30.01,West,271,1.0,3.0,79,0.00,,,0.00,weatherlink.com 1.10,2014-08-20 15:06:00,
2014-08-20 11:20:00,81.3,72.0,30.00,SW,232,0.0,2.0,74,0.00,,,0.00,weatherlink.com 1.10,2014-08-20 15:20:00,
2014-08-20 11:35:00,82.3,72.0,30.00,NW,325,2.0,3.0,72,0.00,,,0.00,weatherlink.com 1.10,2014-08-20 15:35:00,
2014-08-20 11:50:00,83.1,72.0,30.01,NW,314,2.0,4.0,70,0.00,,,0.00,weatherlink.com 1.10,2014-08-20 15:50:00,
2014-08-20 12:05:00,83.7,73.0,30.01,NNE,29,1.0,3.0,69,0.00,,,0.00,weatherlink.com 1.10,2014-08-20 16:05:00,
2014-08-20 12:20:00,83.8,72.0,30.01,NW,321,0.0,5.0,68,0.00,,,0.00,weatherlink.com 1.10,2014-08-20 16:20:00,
2014-08-20 12:35:00,83.5,71.0,30.01,NE,37,3.0,9.0,67,0.00,,,0.00,weatherlink.com 1.10,2014-08-20 16:35:00,
2014-08-20 12:50:00,83.8,72.0,30.00,WNW,288,0.0,4.0,68,0.00,,,0.00,weatherlink.com 1.10,2014-08-20 16:50:00,
2014-08-20 13:05:00,85.9,73.0,29.99,NNE,26,0.0,4.0,65,0.00,,,0.00,weatherlink.com 1.10,2014-08-20 17:05:00,